^^
Meteo Knjazevac Station Historical Data
Daily Summary for August 2, 2022 Units:  English    Metric   Both
Daily Weekly Monthly Yearly Custom
  High: Low: Average:
Temperature: 37.5 °F 35.9 °F 36.7 °F
Dew Point: 36.5 °F 34.6 °F 35.4 °F
Humidity: 96% 94% 95%
Wind Speed: 18.1mph 9.8mph 15mph
Wind Gust: 22mph - -
Wind- - SSW
Pressure: 30.12 in 30.10 in -
Precipitation: 0.00 in    
Historical Graphs
 
 
Tabular Data for August 2, 2022
Time Temperature Dew Point Pressure Wind Wind Speed Wind Gust Humidity Rainfall Rate (Hourly) solar Conditions
00:04 37.5 °F 36.5 °F 30.12 in North 12.8 mph 15 mph 96% 0.00 in 0 W/m2
00:09 37.4 °F 36.4 °F 30.12 in North 13.5 mph 19 mph 96% 0.00 in 0 W/m2
00:14 37.4 °F 36.4 °F 30.12 in North 12.1 mph 17 mph 96% 0.00 in 0 W/m2
00:19 37.4 °F 36.4 °F 30.12 in North 14.1 mph 15 mph 96% 0.00 in 0 W/m2
00:24 37.4 °F 36.4 °F 30.12 in North 12.9 mph 17 mph 96% 0.00 in 0 W/m2
00:29 37.4 °F 36.4 °F 30.12 in North 14.9 mph 15 mph 96% 0.00 in 0 W/m2
00:34 37.4 °F 36.4 °F 30.12 in North 13.9 mph 17 mph 96% 0.00 in 0 W/m2
00:39 37.4 °F 36.4 °F 30.12 in North 15 mph 16 mph 96% 0.00 in 0 W/m2
00:44 37.4 °F 36.4 °F 30.12 in North 13.8 mph 17 mph 96% 0.00 in 0 W/m2
00:49 37.4 °F 36.3 °F 30.12 in North 14.5 mph 15 mph 95.6% 0.00 in 0 W/m2
00:54 37.4 °F 36.1 °F 30.11 in North 12.7 mph 18 mph 95% 0.00 in 0 W/m2
00:59 37.4 °F 36.1 °F 30.11 in North 14.4 mph 16 mph 95% 0.00 in 0 W/m2
01:04 37.5 °F 36.2 °F 30.11 in North 14.1 mph 19 mph 95% 0.00 in 0 W/m2
01:09 37.5 °F 36.2 °F 30.11 in North 17.3 mph 18 mph 95% 0.00 in 0 W/m2
01:14 37.4 °F 36.1 °F 30.11 in North 13.9 mph 21 mph 95% 0.00 in 0 W/m2
01:19 37.4 °F 36.1 °F 30.11 in North 15.7 mph 17 mph 95% 0.00 in 0 W/m2
01:24 37.4 °F 36.1 °F 30.11 in North 13.6 mph 22 mph 95% 0.00 in 0 W/m2
01:29 37.4 °F 36.1 °F 30.11 in North 9.8 mph 15 mph 95% 0.00 in 0 W/m2
01:34 37.4 °F 36.1 °F 30.12 in North 16 mph 15 mph 95% 0.00 in 0 W/m2
01:39 37.2 °F 35.9 °F 30.11 in North 16.6 mph 22 mph 95% 0.00 in 0 W/m2
01:44 37.2 °F 35.9 °F 30.12 in North 12.4 mph 18 mph 95% 0.00 in 0 W/m2
01:49 37.2 °F 35.9 °F 30.12 in North 13.8 mph 14 mph 95% 0.00 in 0 W/m2
01:54 37.2 °F 35.9 °F 30.12 in North 15.1 mph 17 mph 95% 0.00 in 0 W/m2
01:59 37.2 °F 35.9 °F 30.11 in North 16.6 mph 20 mph 94.9% 0.00 in 0 W/m2
02:04 37.2 °F 35.8 °F 30.11 in North 14.6 mph 19 mph 94.4% 0.00 in 0 W/m2
02:09 37.2 °F 35.9 °F 30.11 in North 14.5 mph 21 mph 95% 0.00 in 0 W/m2
02:14 37.2 °F 35.9 °F 30.11 in North 12.7 mph 17 mph 95% 0.00 in 0 W/m2
02:19 37.2 °F 35.8 °F 30.11 in North 16.1 mph 16 mph 94.3% 0.00 in 0 W/m2
02:24 37.2 °F 35.7 °F 30.11 in North 15.2 mph 18 mph 94.2% 0.00 in 0 W/m2
02:29 37.1 °F 35.8 °F 30.11 in North 13.8 mph 18 mph 95% 0.00 in 0 W/m2
02:34 37 °F 35.7 °F 30.11 in North 14.4 mph 16 mph 95% 0.00 in 0 W/m2
02:39 37 °F 35.6 °F 30.11 in North 17.9 mph 20 mph 94.6% 0.00 in 0 W/m2
02:44 37 °F 35.7 °F 30.11 in North 17.3 mph 20 mph 95% 0.00 in 0 W/m2
02:49 37 °F 35.7 °F 30.11 in North 13.7 mph 20 mph 95% 0.00 in 0 W/m2
02:54 37 °F 35.7 °F 30.11 in North 16.2 mph 15 mph 95% 0.00 in 0 W/m2
02:59 37 °F 35.7 °F 30.11 in North 15.1 mph 21 mph 95% 0.00 in 0 W/m2
03:04 36.9 °F 35.5 °F 30.11 in North 13.9 mph 20 mph 94.8% 0.00 in 0 W/m2
03:09 36.9 °F 35.3 °F 30.11 in North 16.5 mph 18 mph 94% 0.00 in 0 W/m2
03:14 36.9 °F 35.3 °F 30.10 in North 17.3 mph 21 mph 94.2% 0.00 in 0 W/m2
03:19 36.9 °F 35.6 °F 30.11 in North 13.7 mph 21 mph 95% 0.00 in 0 W/m2
03:24 36.7 °F 35.4 °F 30.11 in North 14 mph 16 mph 95% 0.00 in 0 W/m2
03:29 36.7 °F 35.4 °F 30.11 in North 13.9 mph 16 mph 95% 0.00 in 0 W/m2
03:34 36.6 °F 35.3 °F 30.11 in North 12.6 mph 16 mph 95% 0.00 in 0 W/m2
03:39 36.5 °F 35.2 °F 30.11 in North 16.4 mph 20 mph 95% 0.00 in 0 W/m2
03:44 36.4 °F 35.3 °F 30.11 in North 12.7 mph 20 mph 95.6% 0.00 in 0 W/m2
03:49 36.3 °F 35.3 °F 30.11 in North 14.8 mph 16 mph 96% 0.00 in 0 W/m2
03:54 36.3 °F 35.3 °F 30.10 in North 14.8 mph 16 mph 96% 0.00 in 0 W/m2
03:59 36.3 °F 35.3 °F 30.10 in North 15.2 mph 20 mph 96% 0.00 in 0 W/m2
04:04 36.3 °F 35.3 °F 30.10 in North 15.8 mph 16 mph 96% 0.00 in 0 W/m2
04:09 36.3 °F 35.3 °F 30.10 in North 13.3 mph 17 mph 96% 0.00 in 0 W/m2
04:14 36.3 °F 35.2 °F 30.10 in North 17.6 mph 17 mph 95.7% 0.00 in 0 W/m2
04:19 36.3 °F 35 °F 30.10 in North 16.5 mph 22 mph 95% 0.00 in 0 W/m2
04:24 36.3 °F 35 °F 30.10 in North 16 mph 19 mph 95% 0.00 in 0 W/m2
04:29 36.3 °F 35 °F 30.11 in North 15.4 mph 20 mph 95% 0.00 in 0 W/m2
04:34 36.3 °F 35 °F 30.11 in North 15.7 mph 18 mph 95% 0.00 in 0 W/m2
04:39 36.3 °F 35 °F 30.10 in North 16.5 mph 18 mph 95% 0.00 in 0 W/m2
04:44 36.3 °F 35 °F 30.10 in North 15.3 mph 19 mph 95% 0.00 in 0 W/m2
04:49 36.3 °F 35 °F 30.10 in North 14.8 mph 19 mph 95% 0.00 in 0 W/m2
04:54 36.3 °F 35 °F 30.10 in North 16.5 mph 17 mph 95% 0.00 in 0 W/m2
04:59 36.3 °F 35 °F 30.10 in North 14.2 mph 21 mph 94.8% 0.00 in 0 W/m2
05:04 36.3 °F 34.8 °F 30.10 in North 14.8 mph 17 mph 94% 0.00 in 0 W/m2
05:09 36.3 °F 34.8 °F 30.10 in North 13.6 mph 17 mph 94% 0.00 in 0 W/m2
05:14 36.3 °F 34.8 °F 30.10 in North 15.9 mph 16 mph 94% 0.00 in 0 W/m2
05:19 36.3 °F 34.8 °F 30.10 in North 12.9 mph 20 mph 94% 0.00 in 0 W/m2
05:24 36.3 °F 34.8 °F 30.10 in North 14.2 mph 17 mph 94% 0.00 in 0 W/m2
05:29 36.3 °F 34.8 °F 30.10 in North 15.3 mph 21 mph 94% 0.00 in 0 W/m2
05:34 36.3 °F 34.8 °F 30.10 in North 15.7 mph 21 mph 94% 0.00 in 0 W/m2
05:39 36.3 °F 34.8 °F 30.10 in North 17.2 mph 20 mph 94% 0.00 in 0 W/m2
05:44 36.2 °F 34.7 °F 30.10 in North 14.9 mph 22 mph 94% 0.00 in 0 W/m2
05:49 36.2 °F 34.7 °F 30.10 in North 15.3 mph 18 mph 94% 0.00 in 0 W/m2
05:54 36.1 °F 34.6 °F 30.10 in North 15.9 mph 19 mph 94% 0.00 in 0 W/m2
05:59 36.1 °F 34.7 °F 30.10 in North 18 mph 20 mph 94.6% 0.00 in 0 W/m2
06:04 36.1 °F 34.6 °F 30.10 in North 16.1 mph 20 mph 94% 0.00 in 0 W/m2
06:09 36.1 °F 34.6 °F 30.10 in North 15.9 mph 18 mph 94% 0.00 in 0 W/m2
06:14 36.1 °F 34.6 °F 30.10 in North 16.6 mph 17 mph 94% 0.00 in 0 W/m2
06:19 36.1 °F 34.6 °F 30.10 in North 17.5 mph 19 mph 94% 0.00 in 0 W/m2
06:24 36.1 °F 34.7 °F 30.10 in North 18.1 mph 21 mph 94.7% 0.00 in 0 W/m2
06:29 36.1 °F 34.8 °F 30.10 in North 15.6 mph 21 mph 95% 0.00 in 0 W/m2
06:34 36 °F 34.7 °F 30.10 in North 17.2 mph 18 mph 95% 0.00 in 0 W/m2
06:39 36 °F 34.7 °F 30.10 in North 15.3 mph 22 mph 95% 0.00 in 1 W/m2
06:44 36 °F 34.7 °F 30.10 in North 15 mph 18 mph 95% 0.00 in 2 W/m2
06:49 36 °F 34.7 °F 30.10 in North 15 mph 16 mph 95% 0.00 in 3 W/m2
06:54 36 °F 34.7 °F 30.10 in North 16.2 mph 17 mph 95% 0.00 in 7 W/m2
06:59 36 °F 34.8 °F 30.10 in North 15.5 mph 18 mph 95.7% 0.00 in 10 W/m2
07:04 36 °F 34.7 °F 30.10 in North 16.3 mph 20 mph 95.1% 0.00 in 14 W/m2
07:09 35.9 °F 34.8 °F 30.10 in North 13.1 mph 20 mph 95.9% 0.00 in 17 W/m2
Knjazevac, Serbia
Compliments of Weather Underground - 2 mb